createdAt,value
2018-03-23T00:00:57.599Z,19.80
2018-03-23T00:02:02.821Z,19.80
2018-03-23T00:03:07.623Z,19.80
2018-03-23T00:04:12.428Z,19.80
2018-03-23T00:05:17.461Z,19.80
2018-03-23T00:06:22.431Z,19.80
2018-03-23T00:07:27.564Z,19.80
2018-03-23T00:08:32.680Z,19.80
2018-03-23T00:09:37.586Z,19.80
2018-03-23T00:10:42.580Z,19.80
2018-03-23T00:11:47.453Z,19.80
2018-03-23T00:12:52.463Z,19.80
2018-03-23T00:13:57.457Z,19.80
2018-03-23T00:15:02.582Z,19.80
2018-03-23T00:16:07.557Z,19.80
2018-03-23T00:17:12.794Z,19.80
2018-03-23T00:18:17.639Z,19.80
2018-03-23T00:19:22.580Z,19.80
2018-03-23T00:20:27.511Z,19.80
2018-03-23T00:21:33.046Z,19.80
2018-03-23T00:22:38.067Z,19.80
2018-03-23T00:23:43.008Z,19.80
2018-03-23T00:24:48.972Z,19.80
2018-03-23T00:25:53.839Z,19.80
2018-03-23T00:26:58.773Z,19.80
2018-03-23T00:28:03.784Z,19.80
2018-03-23T00:29:08.700Z,19.80
2018-03-23T00:30:13.673Z,19.80
2018-03-23T00:31:18.677Z,19.80
2018-03-23T00:32:23.466Z,19.80
2018-03-23T00:33:28.599Z,19.80
2018-03-23T00:34:33.606Z,19.80
2018-03-23T00:35:38.703Z,19.80
2018-03-23T00:36:43.493Z,19.80
2018-03-23T00:37:48.556Z,19.80
2018-03-23T00:38:53.623Z,19.80
2018-03-23T00:39:58.575Z,19.80
2018-03-23T00:41:04.185Z,19.80
2018-03-23T00:42:09.242Z,19.80
2018-03-23T00:43:14.175Z,19.80
2018-03-23T00:44:19.114Z,19.80
2018-03-23T00:45:24.003Z,19.80
2018-03-23T00:46:29.021Z,19.80
2018-03-23T00:47:34.034Z,19.80
2018-03-23T00:48:38.987Z,19.80
2018-03-23T00:49:44.069Z,19.80
2018-03-23T00:50:49.038Z,19.80
2018-03-23T00:51:53.855Z,19.80
2018-03-23T00:52:58.995Z,19.80
2018-03-23T00:54:03.849Z,19.80
2018-03-23T00:55:08.674Z,19.80
2018-03-23T00:56:13.476Z,19.80
2018-03-23T00:57:18.507Z,19.80
2018-03-23T00:58:23.630Z,19.80
2018-03-23T00:59:28.658Z,19.80
2018-03-23T01:00:33.719Z,19.80
2018-03-23T01:01:38.815Z,19.80
2018-03-23T01:02:43.918Z,19.80
2018-03-23T01:03:48.883Z,19.80
2018-03-23T01:04:53.932Z,19.80
2018-03-23T01:05:58.937Z,19.80
2018-03-23T01:07:04.068Z,19.80
2018-03-23T01:08:09.160Z,19.80
2018-03-23T01:09:14.201Z,19.80
2018-03-23T01:10:19.176Z,19.80
2018-03-23T01:11:24.251Z,19.80
2018-03-23T01:12:29.245Z,19.80
2018-03-23T01:13:34.074Z,19.80
2018-03-23T01:14:39.188Z,19.80
2018-03-23T01:15:44.233Z,19.80
2018-03-23T01:16:49.408Z,19.80
2018-03-23T01:17:54.514Z,19.80
2018-03-23T01:18:59.463Z,19.80
2018-03-23T01:20:04.602Z,19.80
2018-03-23T01:21:09.495Z,19.80
2018-03-23T01:22:14.440Z,19.80
2018-03-23T01:23:19.292Z,19.80
2018-03-23T01:24:24.403Z,19.80
2018-03-23T01:25:29.362Z,19.80
2018-03-23T01:26:34.466Z,19.80
2018-03-23T01:27:39.421Z,19.80
2018-03-23T01:28:44.533Z,19.80
2018-03-23T01:29:49.571Z,19.80
2018-03-23T01:30:54.543Z,19.80
2018-03-23T01:31:59.650Z,19.80
2018-03-23T01:33:04.647Z,19.80
2018-03-23T01:34:09.510Z,19.80
2018-03-23T01:35:14.393Z,19.80
2018-03-23T01:36:19.349Z,19.80
2018-03-23T01:37:24.287Z,19.80
2018-03-23T01:38:29.465Z,19.80
2018-03-23T01:39:34.306Z,19.80
2018-03-23T01:40:39.167Z,19.80
2018-03-23T01:41:44.198Z,19.80
2018-03-23T01:42:49.177Z,19.80
2018-03-23T01:43:54.053Z,19.80
2018-03-23T01:44:59.068Z,19.80
2018-03-23T01:46:03.923Z,19.80
2018-03-23T01:47:08.878Z,19.80
2018-03-23T01:48:13.726Z,19.80
2018-03-23T01:49:18.852Z,19.80
2018-03-23T01:50:23.896Z,19.80
2018-03-23T01:51:28.805Z,19.80
2018-03-23T01:52:33.813Z,19.80
2018-03-23T01:53:38.881Z,19.80
2018-03-23T01:54:43.753Z,19.80
2018-03-23T01:55:48.803Z,19.80
2018-03-23T01:56:53.608Z,19.80
2018-03-23T01:57:58.577Z,19.80
2018-03-23T01:59:03.412Z,19.80
2018-03-23T02:00:08.391Z,19.80
2018-03-23T02:01:13.231Z,19.80
2018-03-23T02:02:18.258Z,19.80
2018-03-23T02:03:23.349Z,19.80
2018-03-23T02:04:28.356Z,19.80
2018-03-23T02:05:33.146Z,19.80
2018-03-23T02:06:38.026Z,19.80
2018-03-23T02:07:42.994Z,19.80
2018-03-23T02:08:47.780Z,19.80
2018-03-23T02:09:52.614Z,19.80
2018-03-23T02:10:57.742Z,19.80
2018-03-23T02:12:02.589Z,19.80
2018-03-23T02:13:07.457Z,19.80
2018-03-23T02:14:12.382Z,19.80
2018-03-23T02:15:17.261Z,19.80
2018-03-23T02:16:22.225Z,19.80
2018-03-23T02:17:27.324Z,19.80
2018-03-23T02:18:32.275Z,19.80
2018-03-23T02:19:37.120Z,19.80
2018-03-23T02:20:42.235Z,19.80
2018-03-23T02:21:47.220Z,19.80
2018-03-23T02:22:51.999Z,19.80
2018-03-23T02:23:56.804Z,19.80
2018-03-23T02:25:01.618Z,19.80
2018-03-23T02:26:06.957Z,19.80
2018-03-23T02:27:11.788Z,19.80
2018-03-23T02:28:16.632Z,19.80
2018-03-23T02:29:21.550Z,19.80
2018-03-23T02:30:26.385Z,19.80
2018-03-23T02:31:31.291Z,19.80
2018-03-23T02:32:36.292Z,19.80
2018-03-23T02:33:41.270Z,19.80
2018-03-23T02:34:46.166Z,19.80
2018-03-23T02:35:51.040Z,19.80
2018-03-23T02:36:55.839Z,19.80
2018-03-23T02:38:00.760Z,19.80
2018-03-23T02:39:05.888Z,19.80
2018-03-23T02:40:10.861Z,19.80
2018-03-23T02:41:15.670Z,19.80
2018-03-23T02:42:20.737Z,19.80
2018-03-23T02:43:25.728Z,19.80
2018-03-23T02:44:30.523Z,19.80
2018-03-23T02:45:35.403Z,19.80
2018-03-23T02:46:40.410Z,19.80
2018-03-23T02:47:45.146Z,19.80
2018-03-23T02:48:50.126Z,19.80
2018-03-23T02:49:55.156Z,19.80
2018-03-23T02:50:59.955Z,19.80
2018-03-23T02:52:04.850Z,19.80
2018-03-23T02:53:09.831Z,19.80
2018-03-23T02:54:14.848Z,19.80
2018-03-23T02:55:19.669Z,19.80
2018-03-23T02:56:24.450Z,19.80
2018-03-23T02:57:29.246Z,19.80
2018-03-23T02:58:34.266Z,19.80
2018-03-23T02:59:39.099Z,19.80
2018-03-23T03:00:43.962Z,19.80
2018-03-23T03:01:48.980Z,19.80
2018-03-23T03:02:54.041Z,19.80
2018-03-23T03:03:59.008Z,19.80
2018-03-23T03:05:03.929Z,19.80
2018-03-23T03:06:08.911Z,19.80
2018-03-23T03:07:14.004Z,19.80
2018-03-23T03:08:19.013Z,19.80
2018-03-23T03:09:23.974Z,19.80
2018-03-23T03:10:28.973Z,19.80
2018-03-23T03:11:33.833Z,19.80
2018-03-23T03:12:38.878Z,19.80
2018-03-23T03:13:43.840Z,19.80
2018-03-23T03:14:48.829Z,19.80
2018-03-23T03:15:53.656Z,19.80
2018-03-23T03:16:58.462Z,19.80
2018-03-23T03:18:03.444Z,19.80
2018-03-23T03:19:08.388Z,19.80
2018-03-23T03:20:13.402Z,19.80
2018-03-23T03:21:18.221Z,19.80
2018-03-23T03:22:23.073Z,19.80
2018-03-23T03:23:28.008Z,19.80
2018-03-23T03:24:32.826Z,19.80
2018-03-23T03:25:37.756Z,19.80
2018-03-23T03:26:42.663Z,19.80
2018-03-23T03:27:47.478Z,19.80
2018-03-23T03:28:52.462Z,19.80
2018-03-23T03:29:57.307Z,19.80
2018-03-23T03:31:02.303Z,19.80
2018-03-23T03:32:07.156Z,19.80
2018-03-23T03:33:11.998Z,19.80
2018-03-23T03:34:16.784Z,19.80
2018-03-23T03:35:21.633Z,19.80
2018-03-23T03:36:26.649Z,19.80
2018-03-23T03:37:31.461Z,19.80
2018-03-23T03:38:36.267Z,19.80
2018-03-23T03:39:41.058Z,19.80
2018-03-23T03:40:45.835Z,19.80
2018-03-23T03:41:50.838Z,19.80
2018-03-23T03:42:55.795Z,19.80
2018-03-23T03:44:00.692Z,19.80
2018-03-23T03:45:05.730Z,19.80
2018-03-23T03:46:10.700Z,19.80
2018-03-23T03:47:15.478Z,19.80
2018-03-23T03:48:20.431Z,19.80
2018-03-23T03:49:25.272Z,19.80
2018-03-23T03:50:30.141Z,19.80
2018-03-23T03:51:35.130Z,19.80
2018-03-23T03:52:39.986Z,19.80
2018-03-23T03:53:44.955Z,19.80
2018-03-23T03:54:49.863Z,19.80
2018-03-23T03:55:54.747Z,19.80
2018-03-23T03:56:59.632Z,19.80
2018-03-23T03:58:04.607Z,19.80
2018-03-23T03:59:09.391Z,19.80
2018-03-23T04:00:14.387Z,19.80
2018-03-23T04:01:19.178Z,19.80
2018-03-23T04:02:24.003Z,19.80
2018-03-23T04:03:28.845Z,19.80
2018-03-23T04:04:33.694Z,19.80
2018-03-23T04:05:38.501Z,19.80
2018-03-23T04:06:43.486Z,19.80
2018-03-23T04:07:48.527Z,19.80
2018-03-23T04:08:53.416Z,19.80
2018-03-23T04:09:58.529Z,19.80
2018-03-23T04:11:03.537Z,19.80
2018-03-23T04:12:08.541Z,19.80
2018-03-23T04:13:13.547Z,19.80
2018-03-23T04:14:18.531Z,19.80
2018-03-23T04:15:23.599Z,19.80
2018-03-23T04:16:28.659Z,19.80
2018-03-23T04:17:33.452Z,19.80
2018-03-23T04:18:38.340Z,19.80
2018-03-23T04:19:43.282Z,19.80
2018-03-23T04:20:48.130Z,19.80
2018-03-23T04:21:53.164Z,19.80
2018-03-23T04:22:58.038Z,19.80
2018-03-23T04:24:02.937Z,19.80
2018-03-23T04:25:07.919Z,19.80
2018-03-23T04:26:12.953Z,19.80
2018-03-23T04:27:17.782Z,19.80
2018-03-23T04:28:22.648Z,19.80
2018-03-23T04:29:27.685Z,19.80
2018-03-23T04:30:32.676Z,19.80
2018-03-23T04:31:37.618Z,19.80
2018-03-23T04:32:42.441Z,19.80
2018-03-23T04:33:47.245Z,19.80
2018-03-23T04:34:52.094Z,19.80
2018-03-23T04:35:57.074Z,19.80
2018-03-23T04:37:01.982Z,19.80
2018-03-23T04:38:06.984Z,19.80
2018-03-23T04:39:12.040Z,19.80
2018-03-23T04:40:17.113Z,19.80
2018-03-23T04:41:21.979Z,19.80
2018-03-23T04:42:26.848Z,19.80
2018-03-23T04:43:31.882Z,19.80
2018-03-23T04:44:36.720Z,19.80
2018-03-23T04:45:41.628Z,19.80
2018-03-23T04:46:46.588Z,19.80
2018-03-23T04:47:51.673Z,19.80
2018-03-23T04:48:56.670Z,19.80
2018-03-23T04:50:01.526Z,19.80
2018-03-23T04:51:06.447Z,19.80
2018-03-23T04:52:11.417Z,19.80
2018-03-23T04:53:16.369Z,19.80
2018-03-23T04:54:21.312Z,19.80
2018-03-23T04:55:26.358Z,19.80
2018-03-23T04:56:31.392Z,19.80
2018-03-23T04:57:36.612Z,19.80
2018-03-23T04:58:41.396Z,19.80
2018-03-23T04:59:46.322Z,19.80
2018-03-23T05:00:51.156Z,19.80
2018-03-23T05:01:56.082Z,19.80
2018-03-23T05:03:00.954Z,19.80
2018-03-23T05:04:06.080Z,19.80
2018-03-23T05:05:10.898Z,19.80
2018-03-23T05:06:15.675Z,19.80
2018-03-23T05:07:20.714Z,19.80
2018-03-23T05:08:25.763Z,19.80
2018-03-23T05:09:30.690Z,19.80
2018-03-23T05:10:35.667Z,19.80
2018-03-23T05:11:40.506Z,19.70
2018-03-23T05:12:45.515Z,19.80
2018-03-23T05:13:50.513Z,19.80
2018-03-23T05:14:55.524Z,19.80
2018-03-23T05:16:00.535Z,19.80
2018-03-23T05:17:05.447Z,19.80
2018-03-23T05:18:10.539Z,19.80
2018-03-23T05:19:15.446Z,19.80
2018-03-23T05:20:20.560Z,19.80
2018-03-23T05:21:25.519Z,19.70
2018-03-23T05:22:30.425Z,19.80
2018-03-23T05:23:35.450Z,19.80
2018-03-23T05:24:40.377Z,19.80
2018-03-23T05:25:45.403Z,19.80
2018-03-23T05:26:50.305Z,19.80
2018-03-23T05:27:55.255Z,19.80
2018-03-23T05:29:00.168Z,19.80
2018-03-23T05:30:05.354Z,19.80
2018-03-23T05:31:10.376Z,19.80
2018-03-23T05:32:15.207Z,19.80
2018-03-23T05:33:20.241Z,19.80
2018-03-23T05:34:25.283Z,19.80
2018-03-23T05:35:30.331Z,19.80
2018-03-23T05:36:35.291Z,19.80
2018-03-23T05:37:40.199Z,19.80
2018-03-23T05:38:45.210Z,19.80
2018-03-23T05:39:50.318Z,19.80
2018-03-23T05:40:55.227Z,19.80
2018-03-23T05:42:00.151Z,19.80
2018-03-23T05:43:05.287Z,19.80
2018-03-23T05:44:10.077Z,19.80
2018-03-23T05:45:14.941Z,19.80
2018-03-23T05:46:19.886Z,19.80
2018-03-23T05:47:24.957Z,19.80
2018-03-23T05:48:29.883Z,19.80
2018-03-23T05:49:34.908Z,19.80
2018-03-23T05:50:39.898Z,19.80
2018-03-23T05:51:44.886Z,19.80
2018-03-23T05:52:49.858Z,19.80
2018-03-23T05:53:54.727Z,19.80
2018-03-23T05:54:59.525Z,19.80
2018-03-23T05:56:04.420Z,19.80
2018-03-23T05:57:09.467Z,19.70
2018-03-23T05:58:14.660Z,19.70
2018-03-23T05:59:19.712Z,19.70
2018-03-23T06:00:24.992Z,19.70
2018-03-23T06:01:29.997Z,19.70
2018-03-23T06:02:34.760Z,19.70
2018-03-23T06:03:39.595Z,19.70
2018-03-23T06:04:44.612Z,19.70
2018-03-23T06:05:49.707Z,19.70
2018-03-23T06:06:54.706Z,19.70
2018-03-23T06:07:59.532Z,19.70
2018-03-23T06:09:04.589Z,19.70
2018-03-23T06:10:09.716Z,19.60
2018-03-23T06:11:14.490Z,19.60
2018-03-23T06:12:19.410Z,19.60
2018-03-23T06:13:24.552Z,19.50
2018-03-23T06:14:29.482Z,19.50
2018-03-23T06:15:34.607Z,19.40
2018-03-23T06:16:39.777Z,19.40
2018-03-23T06:17:44.984Z,19.20
2018-03-23T06:18:50.235Z,19.20
2018-03-23T06:19:55.457Z,19.10
2018-03-23T06:21:00.595Z,19.00
2018-03-23T06:22:05.680Z,19.00
2018-03-23T06:23:10.675Z,18.90
2018-03-23T06:24:15.860Z,18.90
2018-03-23T06:25:21.030Z,18.80
2018-03-23T06:26:26.053Z,18.80
2018-03-23T06:27:31.152Z,18.80
2018-03-23T06:28:36.163Z,18.90
2018-03-23T06:29:41.202Z,18.70
2018-03-23T06:30:46.189Z,18.70
2018-03-23T06:31:51.286Z,18.60
2018-03-23T06:32:56.285Z,18.60
2018-03-23T06:34:01.172Z,18.60
2018-03-23T06:35:06.208Z,18.60
2018-03-23T06:36:11.182Z,18.60
2018-03-23T06:37:16.328Z,18.50
2018-03-23T06:38:21.513Z,18.50
2018-03-23T06:39:26.532Z,18.50
2018-03-23T06:40:31.601Z,18.50
2018-03-23T06:41:36.606Z,18.50
2018-03-23T06:42:41.563Z,18.50
2018-03-23T06:43:46.767Z,18.50
2018-03-23T06:44:51.991Z,18.40
2018-03-23T06:45:56.984Z,18.40
2018-03-23T06:47:01.993Z,18.40
2018-03-23T06:48:07.087Z,18.40
2018-03-23T06:49:12.180Z,18.30
2018-03-23T06:50:17.161Z,18.40
2018-03-23T06:51:22.461Z,18.30
2018-03-23T06:52:27.553Z,18.30
2018-03-23T06:53:32.479Z,18.30
2018-03-23T06:54:37.516Z,18.30
2018-03-23T06:55:42.492Z,18.30
2018-03-23T06:56:47.638Z,18.30
2018-03-23T06:57:52.510Z,18.40
2018-03-23T06:58:57.441Z,18.40
2018-03-23T07:00:02.559Z,18.50
2018-03-23T07:01:07.617Z,18.50
2018-03-23T07:02:12.557Z,18.60
2018-03-23T07:03:17.493Z,18.60
2018-03-23T07:04:22.566Z,18.70
2018-03-23T07:05:27.612Z,18.70
2018-03-23T07:06:32.649Z,18.80
2018-03-23T07:07:37.542Z,18.90
2018-03-23T07:08:42.610Z,19.00
2018-03-23T07:09:47.682Z,19.00
2018-03-23T07:10:52.609Z,19.10
2018-03-23T07:11:57.680Z,19.20
2018-03-23T07:13:02.729Z,19.20
2018-03-23T07:14:07.624Z,19.30
2018-03-23T07:15:12.488Z,19.30
2018-03-23T07:16:17.545Z,19.30
2018-03-23T07:17:22.669Z,19.40
2018-03-23T07:18:28.090Z,19.40
2018-03-23T07:19:32.891Z,19.40
2018-03-23T07:20:37.649Z,19.40
2018-03-23T07:21:43.121Z,19.50
2018-03-23T07:22:48.179Z,19.50
2018-03-23T07:23:53.241Z,19.50
2018-03-23T07:24:58.260Z,19.50
2018-03-23T07:26:03.203Z,19.50
2018-03-23T07:27:08.416Z,19.50
2018-03-23T07:28:13.435Z,19.60
2018-03-23T07:29:18.321Z,19.60
2018-03-23T07:30:23.246Z,19.60
2018-03-23T07:31:28.243Z,19.60
2018-03-23T07:32:33.304Z,19.60
2018-03-23T07:33:38.437Z,19.70
2018-03-23T07:34:43.531Z,19.70
2018-03-23T07:35:48.390Z,19.70
2018-03-23T07:36:53.398Z,19.70
2018-03-23T07:37:58.454Z,19.70
2018-03-23T07:39:04.351Z,19.70
2018-03-23T07:40:09.787Z,19.70
2018-03-23T07:41:16.759Z,19.70
2018-03-23T07:42:21.698Z,19.70
2018-03-23T07:43:26.531Z,19.70
2018-03-23T07:44:31.550Z,19.70
2018-03-23T07:45:36.542Z,19.70
2018-03-23T07:46:41.471Z,19.80
2018-03-23T07:47:46.551Z,19.80
2018-03-23T07:48:51.700Z,19.80
2018-03-23T07:49:56.642Z,19.80
2018-03-23T07:51:01.549Z,19.80
2018-03-23T07:52:06.516Z,19.80
2018-03-23T07:53:11.444Z,19.80
2018-03-23T07:54:16.594Z,19.80
2018-03-23T07:55:21.683Z,19.80
2018-03-23T07:56:26.547Z,19.90
2018-03-23T07:57:31.317Z,19.90
2018-03-23T07:58:36.153Z,19.90
2018-03-23T07:59:41.002Z,19.90
2018-03-23T08:00:46.064Z,19.90
2018-03-23T08:01:51.134Z,19.90
2018-03-23T08:02:55.995Z,19.80
2018-03-23T08:04:00.994Z,19.90
2018-03-23T08:05:05.862Z,19.80
2018-03-23T08:06:10.981Z,19.80
2018-03-23T08:07:16.690Z,19.80
2018-03-23T08:08:21.855Z,19.80
2018-03-23T08:09:26.938Z,19.80
2018-03-23T08:10:32.818Z,19.80
2018-03-23T08:11:37.907Z,19.80
2018-03-23T08:12:42.780Z,19.80
2018-03-23T08:13:47.792Z,19.80
2018-03-23T08:14:52.799Z,19.80
2018-03-23T08:15:57.838Z,19.80
2018-03-23T08:17:17.082Z,19.80
2018-03-23T08:18:21.896Z,19.80
2018-03-23T08:19:26.707Z,19.80
2018-03-23T08:20:31.560Z,19.80
2018-03-23T08:21:36.491Z,19.80
2018-03-23T08:22:41.350Z,19.80
2018-03-23T08:23:46.325Z,19.80
2018-03-23T08:24:51.109Z,19.80
2018-03-23T08:25:56.251Z,19.80
2018-03-23T08:27:01.062Z,19.80
2018-03-23T08:28:05.896Z,19.80
2018-03-23T08:29:10.896Z,19.80
2018-03-23T08:30:15.695Z,19.80
2018-03-23T08:31:20.456Z,19.80
2018-03-23T08:32:25.265Z,19.80
2018-03-23T08:33:30.009Z,19.80
2018-03-23T08:34:34.847Z,19.80
2018-03-23T08:35:39.847Z,19.80
2018-03-23T08:36:44.886Z,19.80
2018-03-23T08:37:49.774Z,19.80
2018-03-23T08:38:54.683Z,19.80
2018-03-23T08:39:59.702Z,19.80
2018-03-23T08:41:04.599Z,19.80
2018-03-23T08:42:09.558Z,19.80
2018-03-23T08:43:14.421Z,19.80
2018-03-23T08:44:19.199Z,19.80
2018-03-23T08:45:24.159Z,19.80
2018-03-23T08:46:29.226Z,19.80
2018-03-23T08:47:34.031Z,19.80
2018-03-23T08:48:39.089Z,19.80
2018-03-23T08:49:43.921Z,19.80
2018-03-23T08:50:48.906Z,19.70
2018-03-23T08:51:53.843Z,19.80
2018-03-23T08:52:58.885Z,19.80
2018-03-23T08:54:03.772Z,19.80
2018-03-23T08:55:08.951Z,19.80
2018-03-23T08:56:14.004Z,19.80
2018-03-23T08:57:18.921Z,19.70
2018-03-23T08:58:24.107Z,19.80
2018-03-23T08:59:28.983Z,19.80
2018-03-23T09:00:33.908Z,19.80
2018-03-23T09:01:39.168Z,19.80
2018-03-23T09:02:44.101Z,19.80
2018-03-23T09:03:49.292Z,19.80
2018-03-23T09:04:54.518Z,19.90
2018-03-23T09:05:59.901Z,19.90
2018-03-23T09:07:04.888Z,19.90
2018-03-23T09:08:10.044Z,19.90
2018-03-23T09:09:15.225Z,19.90
2018-03-23T09:10:20.810Z,19.90
2018-03-23T09:11:25.927Z,19.90
2018-03-23T09:12:31.178Z,19.90
2018-03-23T09:13:36.557Z,19.90
2018-03-23T09:14:42.367Z,19.90
2018-03-23T09:15:47.438Z,19.90
2018-03-23T09:16:52.784Z,19.90
2018-03-23T09:17:57.854Z,19.90
2018-03-23T09:19:03.335Z,19.90
2018-03-23T09:20:08.446Z,19.90
2018-03-23T09:21:13.754Z,19.90
2018-03-23T09:22:18.691Z,19.80
2018-03-23T09:23:23.794Z,19.80
2018-03-23T09:24:29.154Z,19.80
2018-03-23T09:25:34.420Z,19.80
2018-03-23T09:26:39.641Z,19.80
2018-03-23T09:27:44.813Z,19.80
2018-03-23T09:28:50.420Z,19.80
2018-03-23T09:29:55.494Z,19.80
2018-03-23T09:31:00.710Z,19.80
2018-03-23T09:32:05.854Z,19.80
2018-03-23T09:33:11.023Z,19.80
2018-03-23T09:34:16.014Z,19.80
2018-03-23T09:35:21.377Z,19.80
2018-03-23T09:36:26.520Z,19.80
2018-03-23T09:37:31.753Z,19.80
2018-03-23T09:38:36.626Z,19.80
2018-03-23T09:39:42.005Z,19.80
2018-03-23T09:40:47.059Z,19.80
2018-03-23T09:41:52.419Z,19.80
2018-03-23T09:42:57.476Z,19.80
2018-03-23T09:44:02.653Z,19.80
2018-03-23T09:45:07.614Z,19.80
2018-03-23T09:46:12.727Z,19.80
2018-03-23T09:47:17.802Z,19.80
2018-03-23T09:48:22.846Z,19.80
2018-03-23T09:49:27.724Z,19.80
2018-03-23T09:50:32.758Z,19.80
2018-03-23T09:51:37.603Z,19.80
2018-03-23T09:52:42.462Z,19.80
2018-03-23T09:53:47.369Z,19.80
2018-03-23T09:54:52.425Z,19.80
2018-03-23T09:55:57.639Z,19.80
2018-03-23T09:57:02.786Z,19.80
2018-03-23T09:58:07.822Z,19.80
2018-03-23T09:59:13.195Z,19.80
2018-03-23T10:00:18.510Z,19.80
2018-03-23T10:01:23.849Z,19.80
2018-03-23T10:02:29.083Z,19.80
2018-03-23T10:03:34.605Z,19.80
2018-03-23T10:04:39.496Z,19.80
2018-03-23T10:05:44.537Z,19.80
2018-03-23T10:06:50.144Z,19.80
2018-03-23T10:07:55.320Z,19.80
2018-03-23T10:09:00.181Z,19.80
2018-03-23T10:10:05.303Z,19.80
2018-03-23T10:11:10.065Z,19.80
2018-03-23T10:12:15.450Z,19.80
2018-03-23T10:13:21.459Z,19.80
2018-03-23T10:14:26.664Z,19.80
2018-03-23T10:15:31.496Z,19.80
2018-03-23T10:16:36.507Z,19.80
2018-03-23T10:17:41.527Z,19.80
2018-03-23T10:18:46.578Z,19.80
2018-03-23T10:19:51.534Z,19.80
2018-03-23T10:20:56.418Z,19.80
2018-03-23T10:22:01.248Z,19.80
2018-03-23T10:23:06.243Z,19.80
2018-03-23T10:24:11.106Z,19.80
2018-03-23T10:25:16.144Z,19.80
2018-03-23T10:26:21.023Z,19.80
2018-03-23T10:27:26.081Z,19.80
2018-03-23T10:28:30.925Z,19.80
2018-03-23T10:29:36.019Z,19.80
2018-03-23T10:30:40.886Z,19.90
2018-03-23T10:31:45.918Z,19.80
2018-03-23T10:32:51.009Z,19.80
2018-03-23T10:33:56.031Z,19.80
2018-03-23T10:35:01.028Z,19.80
2018-03-23T10:36:06.012Z,19.80
2018-03-23T10:37:10.789Z,19.80
2018-03-23T10:38:15.910Z,19.80
2018-03-23T10:39:20.693Z,19.80
2018-03-23T10:40:25.521Z,19.80
2018-03-23T10:41:30.551Z,19.80
2018-03-23T10:42:35.366Z,19.80
2018-03-23T10:43:40.464Z,19.80
2018-03-23T10:44:45.263Z,19.80
2018-03-23T10:45:50.176Z,19.80
2018-03-23T10:46:55.140Z,19.80
2018-03-23T10:47:59.955Z,19.80
2018-03-23T10:49:05.008Z,19.80
2018-03-23T10:50:09.776Z,19.80
2018-03-23T10:51:14.764Z,19.80
2018-03-23T10:52:19.861Z,19.80
2018-03-23T10:53:24.891Z,19.80
2018-03-23T10:54:29.835Z,19.80
2018-03-23T10:55:34.630Z,19.80
2018-03-23T10:56:39.645Z,19.80
2018-03-23T10:57:44.625Z,19.80
2018-03-23T10:58:49.600Z,19.80
2018-03-23T10:59:54.511Z,19.80
2018-03-23T11:00:59.401Z,19.80
2018-03-23T11:02:04.326Z,19.70
2018-03-23T11:03:09.367Z,19.70
2018-03-23T11:04:14.357Z,19.70
2018-03-23T11:05:19.400Z,19.70
2018-03-23T11:06:24.410Z,19.70
2018-03-23T11:07:29.327Z,19.80
2018-03-23T11:08:34.413Z,19.70
2018-03-23T11:09:39.337Z,19.80
2018-03-23T11:10:44.218Z,19.80
2018-03-23T11:11:49.229Z,19.80
2018-03-23T11:12:54.191Z,19.80
2018-03-23T11:13:59.853Z,19.80
2018-03-23T11:15:04.820Z,19.80
2018-03-23T11:16:09.858Z,19.80
2018-03-23T11:17:14.754Z,19.80
2018-03-23T11:18:20.004Z,19.80
2018-03-23T11:19:24.990Z,19.80
2018-03-23T11:20:30.007Z,19.80
2018-03-23T11:21:35.052Z,19.80
2018-03-23T11:22:40.138Z,19.80
2018-03-23T11:23:45.239Z,19.80
2018-03-23T11:24:50.145Z,19.80
2018-03-23T11:25:55.047Z,19.80
2018-03-23T11:27:00.035Z,19.80
2018-03-23T11:28:05.137Z,19.80
2018-03-23T11:29:10.292Z,19.80
2018-03-23T11:30:15.473Z,19.80
2018-03-23T11:31:20.425Z,19.80
2018-03-23T11:32:25.912Z,19.80
2018-03-23T11:33:30.871Z,19.80
2018-03-23T11:34:35.879Z,19.90
2018-03-23T11:35:40.785Z,19.80
2018-03-23T11:36:45.785Z,19.90
2018-03-23T11:37:50.643Z,19.90
2018-03-23T11:38:55.594Z,19.90
2018-03-23T11:40:00.458Z,19.80
2018-03-23T11:41:05.436Z,19.80
2018-03-23T11:42:10.466Z,19.80
2018-03-23T11:43:15.228Z,19.80
2018-03-23T11:44:20.283Z,19.80
2018-03-23T11:45:25.020Z,19.80
2018-03-23T11:46:29.977Z,19.80
2018-03-23T11:47:34.832Z,19.80
2018-03-23T11:48:39.739Z,19.80
2018-03-23T11:49:44.619Z,19.80
2018-03-23T11:50:49.677Z,19.80
2018-03-23T11:51:54.659Z,19.80
2018-03-23T11:52:59.707Z,19.80
2018-03-23T11:54:04.769Z,19.80
2018-03-23T11:55:09.816Z,19.80
2018-03-23T11:56:14.694Z,19.80
2018-03-23T11:57:19.650Z,19.80
2018-03-23T11:58:24.474Z,19.80
2018-03-23T11:59:29.269Z,19.80
2018-03-23T12:00:34.320Z,19.80
2018-03-23T12:01:39.318Z,19.80
2018-03-23T12:02:44.240Z,19.80
2018-03-23T12:03:49.284Z,19.80
2018-03-23T12:04:54.390Z,19.80
2018-03-23T12:05:59.180Z,19.80
2018-03-23T12:07:04.250Z,19.80
2018-03-23T12:08:09.063Z,19.80
2018-03-23T12:09:13.860Z,19.80
2018-03-23T12:10:18.703Z,19.80
2018-03-23T12:11:24.114Z,19.80
2018-03-23T12:12:29.028Z,19.80
2018-03-23T12:13:34.012Z,19.80
2018-03-23T12:14:38.935Z,19.80
2018-03-23T12:15:43.832Z,19.80
2018-03-23T12:16:48.709Z,19.80
2018-03-23T12:17:53.863Z,19.80
2018-03-23T12:18:58.790Z,19.80
2018-03-23T12:20:03.805Z,19.80
2018-03-23T12:21:08.636Z,19.80
2018-03-23T12:22:13.929Z,19.80
2018-03-23T12:23:18.968Z,19.80
2018-03-23T12:24:23.890Z,19.80
2018-03-23T12:25:28.891Z,19.80
2018-03-23T12:26:33.863Z,19.80
2018-03-23T12:27:38.702Z,19.80
2018-03-23T12:28:43.761Z,19.80
2018-03-23T12:29:48.544Z,19.80
2018-03-23T12:30:53.413Z,19.80
2018-03-23T12:31:58.261Z,19.80
2018-03-23T12:33:03.238Z,19.80
2018-03-23T12:34:08.139Z,19.80
2018-03-23T12:35:13.243Z,19.80
2018-03-23T12:36:18.102Z,19.80
2018-03-23T12:37:22.938Z,19.80
2018-03-23T12:38:27.728Z,19.80
2018-03-23T12:39:32.553Z,19.80
2018-03-23T12:40:37.518Z,19.80
2018-03-23T12:41:42.572Z,19.80
2018-03-23T12:42:47.460Z,19.80
2018-03-23T12:43:52.448Z,19.80
2018-03-23T12:44:57.346Z,19.80
2018-03-23T12:46:02.379Z,19.80
2018-03-23T12:47:07.422Z,19.80
2018-03-23T12:48:12.298Z,19.80
2018-03-23T12:49:17.384Z,19.80
2018-03-23T12:50:22.250Z,19.80
2018-03-23T12:51:27.032Z,19.80
2018-03-23T12:52:31.921Z,19.80
2018-03-23T12:53:36.912Z,19.80
2018-03-23T12:54:41.794Z,19.80
2018-03-23T12:55:46.622Z,19.80
2018-03-23T12:56:51.690Z,19.80
2018-03-23T12:57:56.688Z,19.80
2018-03-23T12:59:01.467Z,19.80
2018-03-23T13:00:06.449Z,19.80
2018-03-23T13:01:11.399Z,19.80
2018-03-23T13:02:16.333Z,19.80
2018-03-23T13:03:21.118Z,19.80
2018-03-23T13:04:26.148Z,19.80
2018-03-23T13:05:30.963Z,19.80
2018-03-23T13:06:35.809Z,19.80
2018-03-23T13:07:40.643Z,19.80
2018-03-23T13:08:45.468Z,19.80
2018-03-23T13:09:50.228Z,19.80
2018-03-23T13:10:55.028Z,19.80
2018-03-23T13:12:00.011Z,19.90
2018-03-23T13:13:04.969Z,19.90
2018-03-23T13:14:10.024Z,19.90
2018-03-23T13:15:14.814Z,19.80
2018-03-23T13:16:19.818Z,19.90
2018-03-23T13:17:24.682Z,19.90
2018-03-23T13:18:29.486Z,19.90
2018-03-23T13:19:34.558Z,19.90
2018-03-23T13:20:39.436Z,19.90
2018-03-23T13:21:44.304Z,19.90
2018-03-23T13:22:49.146Z,19.90
2018-03-23T13:23:54.160Z,19.90
2018-03-23T13:24:59.051Z,19.80
2018-03-23T13:26:03.901Z,19.80
2018-03-23T13:27:08.899Z,19.80
2018-03-23T13:28:13.807Z,19.80
2018-03-23T13:29:18.882Z,19.80
2018-03-23T13:30:23.834Z,19.80
2018-03-23T13:31:28.936Z,19.80
2018-03-23T13:32:33.890Z,19.80
2018-03-23T13:33:38.921Z,19.80
2018-03-23T13:34:43.909Z,19.80
2018-03-23T13:35:48.923Z,19.80
2018-03-23T13:36:53.823Z,19.80
2018-03-23T13:37:59.078Z,19.80
2018-03-23T13:39:04.360Z,19.80
2018-03-23T13:40:09.274Z,19.80
2018-03-23T13:41:14.108Z,19.80
2018-03-23T13:42:19.105Z,19.80
2018-03-23T13:43:24.026Z,19.80
2018-03-23T13:44:29.023Z,19.80
2018-03-23T13:45:33.930Z,19.80
2018-03-23T13:46:38.706Z,19.80
2018-03-23T13:47:43.620Z,19.80
2018-03-23T13:48:48.487Z,19.80
2018-03-23T13:49:53.472Z,19.80
2018-03-23T13:50:58.301Z,19.80
2018-03-23T13:52:03.106Z,19.80
2018-03-23T13:53:07.898Z,19.80
2018-03-23T13:54:12.703Z,19.80
2018-03-23T13:55:17.651Z,19.80
2018-03-23T13:56:22.776Z,19.80
2018-03-23T13:57:27.689Z,19.80